createdAt,value
2022-11-28T00:01:51.577Z,20.10
2022-11-28T00:04:22.320Z,20.10
2022-11-28T00:06:52.932Z,20.10
2022-11-28T00:09:24.867Z,20.10
2022-11-28T00:11:55.623Z,20.10
2022-11-28T00:14:26.676Z,20.10
2022-11-28T00:16:57.643Z,20.10
2022-11-28T00:19:28.354Z,20.10
2022-11-28T00:21:59.090Z,20.10
2022-11-28T00:24:29.847Z,20.10
2022-11-28T00:27:01.955Z,20.10
2022-11-28T00:29:32.699Z,20.10
2022-11-28T00:32:05.806Z,20.10
2022-11-28T00:34:36.344Z,20.10
2022-11-28T00:37:07.590Z,20.10
2022-11-28T00:39:38.698Z,20.10
2022-11-28T00:42:09.580Z,20.10
2022-11-28T00:44:40.674Z,20.10
2022-11-28T00:47:11.527Z,20.10
2022-11-28T00:49:42.274Z,20.10
2022-11-28T00:52:14.510Z,20.10
2022-11-28T00:54:44.966Z,20.10
2022-11-28T00:57:36.490Z,20.10
2022-11-28T01:00:09.963Z,20.10
2022-11-28T01:02:40.982Z,20.10
2022-11-28T01:05:12.040Z,20.10
2022-11-28T01:07:43.865Z,20.10
2022-11-28T01:10:14.903Z,20.10
2022-11-28T01:12:45.777Z,20.10
2022-11-28T01:15:16.600Z,20.10
2022-11-28T01:17:47.478Z,20.10
2022-11-28T01:20:19.456Z,20.20
2022-11-28T01:22:50.573Z,20.20
2022-11-28T01:25:21.207Z,20.10
2022-11-28T01:27:52.161Z,20.10
2022-11-28T01:30:23.118Z,20.20
2022-11-28T01:32:53.829Z,20.10
2022-11-28T01:35:27.453Z,20.10
2022-11-28T01:37:58.360Z,20.20
2022-11-28T01:40:29.320Z,20.20
2022-11-28T01:43:00.053Z,20.20
2022-11-28T01:45:35.190Z,20.10
2022-11-28T01:48:06.852Z,20.20
2022-11-28T01:50:39.299Z,20.20
2022-11-28T01:53:12.250Z,20.20
2022-11-28T01:55:50.498Z,20.20
2022-11-28T01:58:21.639Z,20.10
2022-11-28T02:00:53.147Z,20.20
2022-11-28T02:03:31.480Z,20.20
2022-11-28T02:06:03.700Z,20.20
2022-11-28T02:08:36.826Z,20.20
2022-11-28T02:11:45.490Z,20.20
2022-11-28T02:14:38.456Z,20.20
2022-11-28T02:17:39.143Z,20.20
2022-11-28T02:20:27.709Z,20.20
2022-11-28T02:23:01.321Z,20.20
2022-11-28T02:25:49.484Z,20.20
2022-11-28T02:28:29.331Z,20.20
2022-11-28T02:31:18.848Z,20.20
2022-11-28T02:33:55.214Z,20.20
2022-11-28T02:36:35.100Z,20.20
2022-11-28T02:39:26.374Z,20.20
2022-11-28T02:42:09.924Z,20.20
2022-11-28T02:45:14.588Z,20.20
2022-11-28T02:47:52.059Z,20.20
2022-11-28T02:50:40.178Z,20.20
2022-11-28T02:53:21.370Z,20.20
2022-11-28T02:55:58.017Z,20.20
2022-11-28T02:58:28.972Z,20.20
2022-11-28T03:00:59.986Z,20.20
2022-11-28T03:04:14.604Z,20.20
2022-11-28T03:07:17.961Z,20.30
2022-11-28T03:09:59.632Z,20.20
2022-11-28T03:13:04.566Z,20.20
2022-11-28T03:16:05.726Z,20.30
2022-11-28T03:19:01.359Z,20.30
2022-11-28T03:21:46.612Z,20.20
2022-11-28T03:24:50.522Z,20.30
2022-11-28T03:27:46.344Z,20.30
2022-11-28T03:33:11.588Z,20.30
2022-11-28T03:35:59.709Z,20.30
2022-11-28T03:38:44.651Z,20.30
2022-11-28T03:41:25.728Z,20.30
2022-11-28T03:43:59.934Z,20.30
2022-11-28T03:46:39.506Z,20.30
2022-11-28T03:49:12.968Z,20.30
2022-11-28T03:52:17.031Z,20.30
2022-11-28T03:55:24.270Z,20.30
2022-11-28T03:58:19.056Z,20.30
2022-11-28T04:01:17.876Z,20.30
2022-11-28T04:03:56.954Z,20.30
2022-11-28T04:06:46.031Z,20.30
2022-11-28T04:09:22.082Z,20.30
2022-11-28T04:12:21.215Z,20.30
2022-11-28T04:15:18.858Z,20.30
2022-11-28T04:18:05.766Z,20.30
2022-11-28T04:20:53.768Z,20.30
2022-11-28T04:26:38.378Z,20.30
2022-11-28T04:29:12.713Z,20.30
2022-11-28T04:31:46.724Z,20.30
2022-11-28T04:34:20.729Z,20.30
2022-11-28T04:36:51.843Z,20.30
2022-11-28T04:39:26.752Z,20.30
2022-11-28T04:42:15.151Z,20.30
2022-11-28T04:45:01.422Z,20.30
2022-11-28T04:47:32.304Z,20.30
2022-11-28T04:50:04.492Z,20.40
2022-11-28T04:52:44.280Z,20.40
2022-11-28T04:55:30.700Z,20.40
2022-11-28T04:58:34.590Z,20.40
2022-11-28T05:01:09.674Z,20.40
2022-11-28T05:06:38.990Z,20.40
2022-11-28T05:09:11.784Z,20.40
2022-11-28T05:11:44.460Z,20.40
2022-11-28T05:14:15.414Z,20.40
2022-11-28T05:16:46.014Z,20.40
2022-11-28T05:19:17.346Z,20.40
2022-11-28T05:21:48.078Z,20.40
2022-11-28T05:24:18.796Z,20.40
2022-11-28T05:26:52.456Z,20.40
2022-11-28T05:29:23.282Z,20.40
2022-11-28T05:32:13.924Z,20.40
2022-11-28T05:34:44.985Z,20.40
2022-11-28T05:37:18.248Z,20.50
2022-11-28T05:39:48.911Z,20.50
2022-11-28T05:42:19.840Z,20.40
2022-11-28T05:47:35.621Z,20.40
2022-11-28T05:50:07.084Z,20.40
2022-11-28T05:52:37.551Z,20.50
2022-11-28T05:55:14.004Z,20.40
2022-11-28T05:57:45.588Z,20.50
2022-11-28T06:00:16.771Z,20.50
2022-11-28T06:02:47.537Z,20.50
2022-11-28T06:05:41.201Z,20.50
2022-11-28T06:08:12.290Z,20.50
2022-11-28T06:10:43.618Z,20.50
2022-11-28T06:13:14.531Z,20.60
2022-11-28T06:15:46.413Z,20.50
2022-11-28T06:18:17.365Z,20.60
2022-11-28T06:20:48.438Z,20.60
2022-11-28T06:23:19.564Z,20.60
2022-11-28T06:25:51.256Z,20.60
2022-11-28T06:28:22.240Z,20.60
2022-11-28T06:30:52.811Z,20.60
2022-11-28T06:33:23.511Z,20.60
2022-11-28T06:36:13.766Z,20.60
2022-11-28T06:38:45.070Z,20.60
2022-11-28T06:41:18.470Z,20.60
2022-11-28T06:43:49.627Z,20.60
2022-11-28T06:46:31.336Z,20.60
2022-11-28T06:49:02.315Z,20.60
2022-11-28T06:51:32.969Z,20.60
2022-11-28T06:54:03.778Z,20.60
2022-11-28T06:56:34.352Z,20.60
2022-11-28T06:59:05.094Z,20.60
2022-11-28T07:01:35.824Z,20.60
2022-11-28T07:04:07.017Z,20.60
2022-11-28T07:06:37.930Z,20.60
2022-11-28T07:09:08.542Z,20.60
2022-11-28T07:11:41.426Z,20.60
2022-11-28T07:14:12.782Z,20.60
2022-11-28T07:16:43.772Z,20.60
2022-11-28T07:19:14.896Z,20.60
2022-11-28T07:21:45.659Z,20.60
2022-11-28T07:24:16.145Z,20.60
2022-11-28T07:26:48.792Z,20.60
2022-11-28T07:29:24.495Z,20.60
2022-11-28T07:31:55.651Z,20.60
2022-11-28T07:34:27.116Z,20.70
2022-11-28T07:36:57.652Z,20.60
2022-11-28T07:39:28.248Z,20.60
2022-11-28T07:42:00.093Z,20.60
2022-11-28T07:44:30.694Z,20.70
2022-11-28T07:47:02.503Z,20.70
2022-11-28T07:49:34.865Z,20.70
2022-11-28T07:52:05.898Z,20.70
2022-11-28T07:54:36.495Z,20.70
2022-11-28T07:57:14.425Z,20.70
2022-11-28T07:59:48.661Z,20.70
2022-11-28T08:02:20.217Z,20.70
2022-11-28T08:04:55.059Z,20.60
2022-11-28T08:07:26.311Z,20.60
2022-11-28T08:09:57.137Z,20.70
2022-11-28T08:12:27.769Z,20.70
2022-11-28T08:14:58.652Z,20.60
2022-11-28T08:17:29.544Z,20.70
2022-11-28T08:20:00.609Z,20.60
2022-11-28T08:22:32.939Z,20.60
2022-11-28T08:25:03.817Z,20.60
2022-11-28T08:27:34.948Z,20.60
2022-11-28T08:30:09.623Z,20.70
2022-11-28T08:32:40.251Z,20.60
2022-11-28T08:35:16.396Z,20.60
2022-11-28T08:37:49.100Z,20.60
2022-11-28T08:43:04.432Z,20.70
2022-11-28T08:46:02.161Z,20.60
2022-11-28T08:48:34.500Z,20.70
2022-11-28T08:51:08.540Z,20.70
2022-11-28T08:53:39.704Z,20.70
2022-11-28T08:56:13.705Z,20.70
2022-11-28T08:58:43.872Z,20.70
2022-11-28T09:01:22.064Z,20.70
2022-11-28T09:03:57.369Z,20.70
2022-11-28T09:06:28.072Z,20.70
2022-11-28T09:08:59.916Z,20.70
2022-11-28T09:11:31.064Z,20.70
2022-11-28T09:14:03.918Z,20.70
2022-11-28T09:16:35.601Z,20.70
2022-11-28T09:19:08.172Z,20.70
2022-11-28T09:21:40.120Z,20.70
2022-11-28T09:26:55.376Z,20.70
2022-11-28T09:29:26.387Z,20.70
2022-11-28T09:31:58.091Z,20.70
2022-11-28T09:34:29.132Z,20.70
2022-11-28T09:37:04.633Z,20.70
2022-11-28T09:39:50.328Z,20.70
2022-11-28T09:42:48.323Z,20.70
2022-11-28T09:45:25.199Z,20.70
2022-11-28T09:47:59.961Z,20.70
2022-11-28T09:50:37.073Z,20.70
2022-11-28T09:53:23.610Z,20.70
2022-11-28T09:56:15.227Z,20.70
2022-11-28T09:59:16.364Z,20.70
2022-11-28T10:02:23.877Z,20.70
2022-11-28T10:05:05.051Z,20.70
2022-11-28T10:07:51.061Z,20.70
2022-11-28T10:10:46.107Z,20.70
2022-11-28T10:13:22.719Z,20.70
2022-11-28T10:16:27.391Z,20.70
2022-11-28T10:19:02.832Z,20.70
2022-11-28T10:21:34.889Z,20.70
2022-11-28T10:24:40.356Z,20.70
2022-11-28T10:27:15.574Z,20.70
2022-11-28T10:30:00.595Z,20.70
2022-11-28T10:32:46.219Z,20.70
2022-11-28T10:35:28.705Z,20.70
2022-11-28T10:38:00.265Z,20.70
2022-11-28T10:43:50.598Z,20.70
2022-11-28T10:46:59.546Z,20.70
2022-11-28T10:50:01.113Z,20.70
2022-11-28T10:52:41.712Z,20.70
2022-11-28T10:55:31.282Z,20.70
2022-11-28T10:58:06.825Z,20.70
2022-11-28T11:00:39.596Z,20.70
2022-11-28T11:03:18.352Z,20.70
2022-11-28T11:05:49.181Z,20.70
2022-11-28T11:08:31.648Z,20.70
2022-11-28T11:11:17.501Z,20.70
2022-11-28T11:14:05.155Z,20.70
2022-11-28T11:17:00.913Z,20.70
2022-11-28T11:19:36.256Z,20.70
2022-11-28T11:22:30.415Z,20.70
2022-11-28T11:25:09.112Z,20.70
2022-11-28T11:27:40.741Z,20.70
2022-11-28T11:30:44.465Z,20.70
2022-11-28T11:33:29.019Z,20.70
2022-11-28T11:36:00.000Z,20.70
2022-11-28T11:38:38.007Z,20.70
2022-11-28T11:41:33.543Z,20.70
2022-11-28T11:44:27.985Z,20.70
2022-11-28T11:47:08.704Z,20.70
2022-11-28T11:49:53.091Z,20.70
2022-11-28T11:52:29.805Z,20.70
2022-11-28T11:55:04.205Z,20.70
2022-11-28T11:57:46.035Z,20.70
2022-11-28T12:00:16.986Z,20.70
2022-11-28T12:03:01.369Z,20.70
2022-11-28T12:06:13.831Z,20.70
2022-11-28T12:12:30.530Z,20.70
2022-11-28T12:15:07.358Z,20.70
2022-11-28T12:18:04.272Z,20.70
2022-11-28T12:21:05.371Z,20.70
2022-11-28T12:23:57.769Z,20.80
2022-11-28T12:26:34.635Z,20.70
2022-11-28T12:29:15.149Z,20.70
2022-11-28T12:32:09.169Z,20.70
2022-11-28T12:35:15.665Z,20.70
2022-11-28T12:38:25.624Z,20.70
2022-11-28T12:41:15.904Z,20.70
2022-11-28T12:44:10.414Z,20.70
2022-11-28T12:46:54.449Z,20.80
2022-11-28T12:49:44.417Z,20.70
2022-11-28T12:52:44.750Z,20.70
2022-11-28T12:55:35.719Z,20.70
2022-11-28T12:58:32.158Z,20.80
2022-11-28T13:01:05.055Z,20.80
2022-11-28T13:03:43.728Z,20.70
2022-11-28T13:06:33.795Z,20.80
2022-11-28T13:09:36.551Z,20.70
2022-11-28T13:12:40.122Z,20.80
2022-11-28T13:15:29.849Z,20.80
2022-11-28T13:21:25.205Z,20.80
2022-11-28T13:24:43.060Z,20.80
2022-11-28T13:27:56.014Z,20.80
2022-11-28T13:30:34.968Z,20.80
2022-11-28T13:33:28.278Z,20.80
2022-11-28T13:36:04.129Z,20.80
2022-11-28T13:39:23.068Z,20.80
2022-11-28T13:42:28.444Z,20.80
2022-11-28T13:45:31.517Z,20.80
2022-11-28T13:48:42.923Z,20.70
2022-11-28T13:51:33.618Z,20.80
2022-11-28T13:54:23.704Z,20.80
2022-11-28T13:57:22.576Z,20.80
2022-11-28T14:00:08.482Z,20.80
2022-11-28T14:02:50.183Z,20.80
2022-11-28T14:05:56.654Z,20.80
2022-11-28T14:08:41.423Z,20.80
2022-11-28T14:11:36.341Z,20.80
2022-11-28T14:14:50.766Z,20.80
2022-11-28T14:17:30.802Z,20.80
2022-11-28T14:20:41.402Z,20.80
2022-11-28T14:23:35.345Z,20.80
2022-11-28T14:26:27.844Z,20.80
2022-11-28T14:29:07.989Z,20.80
2022-11-28T14:32:31.446Z,20.80
2022-11-28T14:35:35.279Z,20.80
2022-11-28T14:38:28.018Z,20.80
2022-11-28T14:41:04.673Z,20.80
2022-11-28T14:43:47.410Z,20.80
2022-11-28T14:49:19.800Z,20.80
2022-11-28T14:52:16.086Z,20.80
2022-11-28T14:54:46.631Z,20.80
2022-11-28T15:00:32.190Z,20.80
2022-11-28T15:03:39.647Z,20.80
2022-11-28T15:06:40.061Z,20.80
2022-11-28T15:09:25.475Z,20.80
2022-11-28T15:12:27.350Z,20.80
2022-11-28T15:15:01.186Z,20.80
2022-11-28T15:17:35.358Z,20.80
2022-11-28T15:20:19.214Z,20.80
2022-11-28T15:22:50.718Z,20.80
2022-11-28T15:25:30.802Z,20.80
2022-11-28T15:28:16.065Z,20.80
2022-11-28T15:30:53.654Z,20.80
2022-11-28T15:33:28.024Z,20.80
2022-11-28T15:36:04.980Z,20.80
2022-11-28T15:38:37.810Z,20.80
2022-11-28T15:41:10.207Z,20.80
2022-11-28T15:46:35.597Z,20.80
2022-11-28T15:49:08.470Z,20.80
2022-11-28T15:51:39.487Z,20.80
2022-11-28T15:54:35.363Z,20.80
2022-11-28T15:57:08.136Z,20.80
2022-11-28T15:59:41.414Z,20.80
2022-11-28T16:02:29.469Z,20.80
2022-11-28T16:05:24.937Z,20.80
2022-11-28T16:08:29.711Z,20.80
2022-11-28T16:11:03.328Z,20.80
2022-11-28T16:14:01.514Z,20.80
2022-11-28T16:16:37.025Z,20.80
2022-11-28T16:19:10.689Z,20.80
2022-11-28T16:21:52.778Z,20.80
2022-11-28T16:24:38.313Z,20.80
2022-11-28T16:27:32.109Z,20.80
2022-11-28T16:30:06.117Z,20.80
2022-11-28T16:32:42.907Z,20.80
2022-11-28T16:35:17.965Z,20.80
2022-11-28T16:37:49.726Z,20.80
2022-11-28T16:40:26.321Z,20.80
2022-11-28T16:43:05.005Z,20.80
2022-11-28T16:45:38.177Z,20.80
2022-11-28T16:48:19.104Z,20.80
2022-11-28T16:51:13.888Z,20.80
2022-11-28T16:54:25.587Z,20.80
2022-11-28T16:57:00.738Z,20.80
2022-11-28T17:02:24.325Z,20.80
2022-11-28T17:04:56.113Z,20.80
2022-11-28T17:07:28.193Z,20.80
2022-11-28T17:10:00.465Z,20.80
2022-11-28T17:12:38.068Z,20.80
2022-11-28T17:15:16.120Z,20.80
2022-11-28T17:17:47.068Z,20.80
2022-11-28T17:20:19.145Z,20.80
2022-11-28T17:23:11.384Z,20.80
2022-11-28T17:25:41.870Z,20.80
2022-11-28T17:28:17.299Z,20.80
2022-11-28T17:30:52.209Z,20.80
2022-11-28T17:33:24.374Z,20.80
2022-11-28T17:35:57.245Z,20.80
2022-11-28T17:38:31.356Z,20.80
2022-11-28T17:41:03.337Z,20.80
2022-11-28T17:43:39.052Z,20.80
2022-11-28T17:49:00.665Z,20.80
2022-11-28T17:51:31.533Z,20.80
2022-11-28T17:54:02.441Z,20.80
2022-11-28T17:56:33.801Z,20.80
2022-11-28T17:59:04.979Z,20.80
2022-11-28T18:01:36.907Z,20.80
2022-11-28T18:04:09.116Z,20.80
2022-11-28T18:06:41.240Z,20.80
2022-11-28T18:09:15.136Z,20.80
2022-11-28T18:11:50.222Z,20.80
2022-11-28T18:14:21.103Z,20.80
2022-11-28T18:16:52.534Z,20.80
2022-11-28T18:19:23.545Z,20.80
2022-11-28T18:21:54.810Z,20.80
2022-11-28T18:24:25.857Z,20.80
2022-11-28T18:26:56.795Z,20.80
2022-11-28T18:29:28.862Z,20.80
2022-11-28T18:32:00.090Z,20.80
2022-11-28T18:34:31.207Z,20.80
2022-11-28T18:37:02.615Z,20.80
2022-11-28T18:39:36.217Z,20.80
2022-11-28T18:42:07.515Z,20.80
2022-11-28T18:44:39.880Z,20.80
2022-11-28T18:47:11.926Z,20.80
2022-11-28T18:49:43.588Z,20.80
2022-11-28T18:52:14.927Z,20.80
2022-11-28T18:54:46.474Z,20.80
2022-11-28T18:57:17.162Z,20.80
2022-11-28T18:59:54.240Z,20.90
2022-11-28T19:02:26.450Z,20.80
2022-11-28T19:04:58.327Z,20.90
2022-11-28T19:07:30.623Z,20.90
2022-11-28T19:10:01.768Z,20.90
2022-11-28T19:12:33.739Z,20.80
2022-11-28T19:15:04.769Z,20.80
2022-11-28T19:17:36.856Z,20.80
2022-11-28T19:20:08.386Z,20.90
2022-11-28T19:22:39.747Z,20.80
2022-11-28T19:25:11.093Z,20.80
2022-11-28T19:28:01.916Z,20.90
2022-11-28T19:30:32.933Z,20.90
2022-11-28T19:33:04.397Z,20.80
2022-11-28T19:35:40.601Z,20.90
2022-11-28T19:38:11.264Z,20.80
2022-11-28T19:40:42.096Z,20.80
2022-11-28T19:43:13.003Z,20.90
2022-11-28T19:45:44.268Z,20.90
2022-11-28T19:48:16.928Z,20.80
2022-11-28T19:50:54.313Z,20.80
2022-11-28T19:53:27.354Z,20.90
2022-11-28T19:55:59.903Z,20.80
2022-11-28T19:58:33.144Z,20.90
2022-11-28T20:01:18.952Z,20.90
2022-11-28T20:03:51.021Z,20.90
2022-11-28T20:06:28.216Z,20.80
2022-11-28T20:09:03.532Z,20.90
2022-11-28T20:11:38.119Z,20.80
2022-11-28T20:14:15.407Z,20.90
2022-11-28T20:16:46.876Z,20.80
2022-11-28T20:19:19.746Z,20.90
2022-11-28T20:21:51.562Z,20.90
2022-11-28T20:24:23.399Z,20.90
2022-11-28T20:26:54.277Z,20.80
2022-11-28T20:29:28.120Z,20.90
2022-11-28T20:31:59.049Z,20.90
2022-11-28T20:34:30.451Z,20.90
2022-11-28T20:37:03.233Z,20.90
2022-11-28T20:39:34.592Z,20.90
2022-11-28T20:42:05.834Z,20.90
2022-11-28T20:44:36.797Z,20.90
2022-11-28T20:47:09.354Z,20.90
2022-11-28T20:49:41.591Z,20.90
2022-11-28T20:52:12.988Z,20.90
2022-11-28T20:54:43.924Z,20.90
2022-11-28T20:57:21.387Z,20.90
2022-11-28T20:59:53.912Z,20.90
2022-11-28T21:02:44.775Z,20.90
2022-11-28T21:05:15.552Z,20.90
2022-11-28T21:07:46.101Z,20.90
2022-11-28T21:10:16.902Z,20.90
2022-11-28T21:12:48.935Z,20.80
2022-11-28T21:15:19.964Z,20.90
2022-11-28T21:17:50.728Z,20.90
2022-11-28T21:20:21.510Z,20.90
2022-11-28T21:22:52.798Z,20.90
2022-11-28T21:25:23.718Z,20.90
2022-11-28T21:27:54.344Z,20.90
2022-11-28T21:30:25.089Z,20.90
2022-11-28T21:32:55.781Z,20.90
2022-11-28T21:35:26.492Z,20.90
2022-11-28T21:37:58.300Z,20.90
2022-11-28T21:40:29.073Z,20.90
2022-11-28T21:43:00.543Z,20.90
2022-11-28T21:45:31.526Z,20.90
2022-11-28T21:48:02.456Z,20.90
2022-11-28T21:50:34.729Z,20.90
2022-11-28T21:53:05.196Z,20.90
2022-11-28T21:55:38.536Z,20.90
2022-11-28T21:58:10.424Z,20.90
2022-11-28T22:00:57.599Z,20.90
2022-11-28T22:03:30.064Z,20.90
2022-11-28T22:06:24.668Z,20.90
2022-11-28T22:08:56.698Z,20.90
2022-11-28T22:11:27.338Z,20.90
2022-11-28T22:13:58.043Z,20.90
2022-11-28T22:16:30.964Z,20.90
2022-11-28T22:19:22.418Z,20.90
2022-11-28T22:21:54.926Z,20.90
2022-11-28T22:24:26.778Z,20.90
2022-11-28T22:26:59.807Z,20.90
2022-11-28T22:29:33.044Z,20.90
2022-11-28T22:32:04.091Z,20.90
2022-11-28T22:34:39.828Z,20.90
2022-11-28T22:37:11.790Z,20.90
2022-11-28T22:39:42.545Z,20.90
2022-11-28T22:42:13.420Z,20.90
2022-11-28T22:44:44.399Z,20.90
2022-11-28T22:47:15.109Z,20.90
2022-11-28T22:49:45.744Z,20.90
2022-11-28T22:52:16.807Z,20.90
2022-11-28T22:54:47.387Z,20.90
2022-11-28T22:57:18.268Z,20.90
2022-11-28T22:59:49.348Z,20.90
2022-11-28T23:02:20.424Z,20.90
2022-11-28T23:04:51.287Z,20.90
2022-11-28T23:07:22.083Z,20.90
2022-11-28T23:09:53.727Z,20.90
2022-11-28T23:12:26.164Z,20.90
2022-11-28T23:14:56.803Z,20.90
2022-11-28T23:17:27.759Z,20.90
2022-11-28T23:19:58.147Z,20.90
2022-11-28T23:22:29.326Z,20.90
2022-11-28T23:25:00.452Z,20.90
2022-11-28T23:27:31.677Z,20.90
2022-11-28T23:30:02.397Z,20.90
2022-11-28T23:32:32.987Z,20.90
2022-11-28T23:35:05.129Z,20.90
2022-11-28T23:37:40.839Z,20.90
2022-11-28T23:40:12.355Z,20.90
2022-11-28T23:42:44.079Z,20.90
2022-11-28T23:45:15.223Z,20.90
2022-11-28T23:47:45.929Z,20.90
2022-11-28T23:50:16.588Z,20.90
2022-11-28T23:52:47.137Z,20.90
2022-11-28T23:55:17.871Z,20.90
2022-11-28T23:57:48.450Z,20.90
